Time;durP1;ratioP1;P1;durP2;ratioP2;P2;SDS_P1;SDS_P2;PMS_P1;PMS_P2;Temp;Humidity;BMP_temperature;BMP_pressure;BME280_temperature;BME280_humidity;BME280_pressure;Samples;Min_cycle;Max_cycle;Signal;HPM_P1;HPM_P2
2021/03/20 00:01:43;;;;;;;17.23;7.83;;;3.50;99.90;;;;;;5052408;28;20212;-80
2021/03/20 00:04:10;;;;;;;17.43;8.40;;;3.50;99.90;;;;;;5052761;28;20263;-80
2021/03/20 00:06:42;;;;;;;22.57;8.50;;;3.50;99.90;;;;;;5052844;28;20213;-81
2021/03/20 00:09:12;;;;;;;26.27;9.60;;;3.50;99.90;;;;;;5053056;28;20559;-81
2021/03/20 00:11:41;;;;;;;20.77;8.90;;;3.50;99.90;;;;;;5053126;28;20237;-80
2021/03/20 00:14:08;;;;;;;22.07;9.20;;;3.50;99.90;;;;;;5052421;28;20209;-80
2021/03/20 00:16:34;;;;;;;21.07;9.80;;;3.50;99.90;;;;;;5052184;28;20217;-80
2021/03/20 00:19:01;;;;;;;26.60;9.93;;;3.50;99.90;;;;;;5052637;28;20317;-81
2021/03/20 00:21:27;;;;;;;23.60;11.17;;;3.50;99.90;;;;;;5052708;28;20200;-80
2021/03/20 00:23:54;;;;;;;18.43;10.00;;;3.50;99.90;;;;;;5035567;28;20210;-81
2021/03/20 00:26:23;;;;;;;21.07;10.57;;;3.50;99.90;;;;;;5045296;28;20215;-80
2021/03/20 00:28:50;;;;;;;22.87;10.73;;;3.50;99.90;;;;;;5052279;28;20204;-80
2021/03/20 00:31:16;;;;;;;20.93;10.87;;;3.60;99.90;;;;;;5050686;28;20307;-81
2021/03/20 00:33:44;;;;;;;19.83;10.07;;;3.60;99.90;;;;;;5051597;28;20213;-82
2021/03/20 00:36:12;;;;;;;24.20;10.37;;;3.80;99.90;;;;;;5052144;28;20214;-82
2021/03/20 00:38:40;;;;;;;19.50;10.07;;;3.80;99.90;;;;;;5051828;28;20313;-82
2021/03/20 00:41:07;;;;;;;24.43;10.33;;;3.90;99.90;;;;;;5051022;28;20292;-85
2021/03/20 00:43:35;;;;;;;23.43;10.83;;;3.90;99.90;;;;;;5053586;28;20280;-84
2021/03/20 00:46:03;;;;;;;23.00;10.57;;;3.90;99.90;;;;;;5050476;28;20226;-83
2021/03/20 00:48:33;;;;;;;18.50;10.23;;;3.90;99.90;;;;;;5053168;28;20201;-81
2021/03/20 00:51:01;;;;;;;26.20;10.60;;;3.90;99.90;;;;;;5050654;28;20719;-83
2021/03/20 00:53:28;;;;;;;23.27;9.87;;;3.90;99.90;;;;;;5052905;28;20562;-83
2021/03/20 00:55:55;;;;;;;24.97;10.07;;;3.80;99.90;;;;;;5048997;28;20360;-82
2021/03/20 00:58:24;;;;;;;19.23;10.03;;;3.70;99.90;;;;;;5052332;28;20229;-83
2021/03/20 01:00:52;;;;;;;21.97;9.53;;;3.60;99.90;;;;;;5052423;28;20305;-81
2021/03/20 01:03:19;;;;;;;22.13;10.10;;;3.70;99.90;;;;;;5049436;28;20243;-79
2021/03/20 01:05:46;;;;;;;19.97;9.73;;;3.60;99.90;;;;;;5052880;28;20733;-80
2021/03/20 01:08:13;;;;;;;22.23;9.20;;;3.50;99.90;;;;;;5056102;28;20206;-81
2021/03/20 01:10:40;;;;;;;24.63;10.33;;;3.40;99.90;;;;;;5054264;28;20210;-77
2021/03/20 01:13:07;;;;;;;21.07;9.63;;;3.40;99.90;;;;;;5056323;28;20386;-83
2021/03/20 01:15:34;;;;;;;24.00;10.17;;;3.30;99.90;;;;;;5055321;28;20213;-82
2021/03/20 01:18:02;;;;;;;27.40;10.10;;;3.20;99.90;;;;;;5055919;28;20220;-81
2021/03/20 01:20:29;;;;;;;22.93;10.70;;;3.30;99.90;;;;;;5055805;28;20202;-81
2021/03/20 01:22:55;;;;;;;21.70;10.30;;;3.20;99.90;;;;;;5055527;28;20660;-81
2021/03/20 01:25:22;;;;;;;21.87;10.07;;;3.20;99.90;;;;;;5055735;28;20588;-81
2021/03/20 01:27:50;;;;;;;18.30;10.00;;;3.20;99.90;;;;;;5054589;28;20587;-80
2021/03/20 01:30:21;;;;;;;21.73;9.80;;;3.20;99.90;;;;;;5055410;28;20651;-80
2021/03/20 01:32:47;;;;;;;21.33;9.73;;;3.10;99.90;;;;;;5054868;28;20687;-81
2021/03/20 01:35:15;;;;;;;26.90;10.53;;;3.10;99.90;;;;;;5055523;28;20297;-80
2021/03/20 01:37:41;;;;;;;24.00;10.47;;;3.10;99.90;;;;;;5055438;28;20256;-80
2021/03/20 01:40:09;;;;;;;22.70;10.77;;;3.10;99.90;;;;;;5055062;28;20597;-81
2021/03/20 01:42:41;;;;;;;21.60;10.13;;;3.00;99.90;;;;;;5054822;28;20233;-80
2021/03/20 01:45:10;;;;;;;25.47;10.53;;;3.00;99.90;;;;;;5054986;28;20296;-80
2021/03/20 01:47:59;;;;;;;20.23;9.60;;;3.00;99.90;;;;;;5054917;28;20751;-81
2021/03/20 01:50:32;;;;;;;18.67;10.33;;;2.90;99.90;;;;;;5047144;28;20251;-81
2021/03/20 01:53:04;;;;;;;23.70;11.30;;;3.00;99.90;;;;;;5055587;28;20190;-81
2021/03/20 01:55:31;;;;;;;22.63;11.00;;;2.90;99.90;;;;;;5055060;28;20193;-80
2021/03/20 01:58:00;;;;;;;23.43;10.90;;;2.90;99.90;;;;;;5046986;28;20334;-81
2021/03/20 02:00:31;;;;;;;23.97;10.53;;;2.80;99.90;;;;;;5047517;28;20212;-80
2021/03/20 02:03:01;;;;;;;23.23;10.37;;;2.80;99.90;;;;;;5042178;28;20251;-79
2021/03/20 02:05:30;;;;;;;21.70;10.80;;;2.80;99.90;;;;;;5055165;28;20205;-79
2021/03/20 02:07:58;;;;;;;18.93;10.93;;;2.80;99.90;;;;;;5054824;28;20314;-82
2021/03/20 02:10:28;;;;;;;20.10;11.07;;;2.70;99.90;;;;;;5055036;28;20197;-80
2021/03/20 02:12:58;;;;;;;26.47;10.60;;;2.80;99.90;;;;;;5048244;28;20690;-78
2021/03/20 02:15:30;;;;;;;22.97;11.13;;;2.70;99.90;;;;;;5054176;28;20671;-80
2021/03/20 02:18:04;;;;;;;20.43;11.50;;;2.70;99.90;;;;;;5053558;28;20192;-78
2021/03/20 02:20:57;;;;;;;22.83;11.50;;;2.70;99.90;;;;;;5054845;28;20215;-79
2021/03/20 02:23:59;;;;;;;21.80;11.13;;;2.70;99.90;;;;;;5054260;28;20239;-79
2021/03/20 02:26:52;;;;;;;20.23;11.90;;;2.50;99.90;;;;;;5050095;28;20291;-80
2021/03/20 02:30:01;;;;;;;17.77;10.73;;;2.50;99.90;;;;;;5053773;28;20204;-79
2021/03/20 02:32:52;;;;;;;22.27;10.73;;;2.50;99.90;;;;;;5019443;28;20200;-80
2021/03/20 02:35:26;;;;;;;18.77;11.27;;;2.60;99.90;;;;;;5036889;28;20242;-79
2021/03/20 02:38:02;;;;;;;19.23;11.40;;;2.50;99.90;;;;;;5054230;28;20288;-80
2021/03/20 02:40:35;;;;;;;22.53;11.40;;;2.40;99.90;;;;;;5045812;28;20205;-78
2021/03/20 02:43:07;;;;;;;24.90;12.33;;;2.40;99.90;;;;;;5052957;28;20200;-81
2021/03/20 02:45:40;;;;;;;26.57;12.20;;;2.40;99.90;;;;;;5051235;28;20614;-79
2021/03/20 02:48:15;;;;;;;23.73;11.90;;;2.40;99.90;;;;;;5050274;28;20335;-81
2021/03/20 02:50:46;;;;;;;24.37;13.23;;;2.30;99.90;;;;;;5051890;28;20247;-81
2021/03/20 02:53:19;;;;;;;23.83;13.27;;;2.30;99.90;;;;;;5054331;28;20200;-78
2021/03/20 02:55:49;;;;;;;23.40;12.83;;;2.20;99.90;;;;;;5053644;28;20208;-78
2021/03/20 02:58:19;;;;;;;27.60;13.47;;;2.20;99.90;;;;;;5038958;28;20656;-79
2021/03/20 03:00:50;;;;;;;25.50;12.83;;;2.20;99.90;;;;;;5040361;28;20285;-82
2021/03/20 03:03:20;;;;;;;26.00;13.47;;;2.10;99.90;;;;;;5053610;28;20354;-82
2021/03/20 03:05:50;;;;;;;29.00;14.23;;;2.20;99.90;;;;;;5054087;28;20236;-82
2021/03/20 03:08:23;;;;;;;27.07;14.27;;;2.30;99.90;;;;;;5053683;28;20290;-82
2021/03/20 03:10:53;;;;;;;27.90;14.00;;;2.20;99.90;;;;;;5043331;28;20235;-82
2021/03/20 03:13:23;;;;;;;25.20;13.70;;;2.20;99.90;;;;;;5033887;28;20225;-81
2021/03/20 03:15:54;;;;;;;26.73;14.60;;;2.20;99.90;;;;;;5040079;28;20312;-81
2021/03/20 03:18:26;;;;;;;29.13;14.60;;;2.20;99.90;;;;;;5046667;28;20288;-80
2021/03/20 03:20:55;;;;;;;24.53;14.00;;;2.20;99.90;;;;;;5042577;28;20222;-81
2021/03/20 03:23:24;;;;;;;29.57;13.83;;;2.10;99.90;;;;;;5045286;28;20201;-80
2021/03/20 03:26:00;;;;;;;26.03;13.77;;;2.10;99.90;;;;;;5044458;28;20205;-81
2021/03/20 03:28:29;;;;;;;34.60;14.10;;;2.10;99.90;;;;;;5041611;28;20200;-82
2021/03/20 03:30:57;;;;;;;28.80;15.07;;;2.00;99.90;;;;;;5043942;28;20281;-81
2021/03/20 03:33:27;;;;;;;31.20;15.37;;;2.00;99.90;;;;;;5039177;28;20206;-82
2021/03/20 03:35:58;;;;;;;30.97;15.27;;;2.00;99.90;;;;;;5052730;28;20288;-80
2021/03/20 03:38:33;;;;;;;30.57;15.43;;;1.90;99.90;;;;;;5053412;28;20197;-80
2021/03/20 03:41:06;;;;;;;28.20;15.20;;;1.90;99.90;;;;;;5052582;28;20295;-81
2021/03/20 03:43:32;;;;;;;29.67;15.33;;;2.00;99.90;;;;;;5050420;28;20201;-80
2021/03/20 03:45:58;;;;;;;28.57;15.07;;;1.90;99.90;;;;;;5053562;28;20217;-81
2021/03/20 03:48:27;;;;;;;31.17;15.40;;;1.90;99.90;;;;;;5053143;28;20681;-81
2021/03/20 03:50:56;;;;;;;35.27;16.20;;;1.90;99.90;;;;;;5053300;28;20630;-79
2021/03/20 03:53:26;;;;;;;29.47;15.57;;;1.80;99.90;;;;;;5053328;28;20295;-81
2021/03/20 03:55:57;;;;;;;26.07;15.03;;;1.80;99.90;;;;;;5048157;28;20286;-80
2021/03/20 03:58:43;;;;;;;27.37;13.97;;;1.80;99.90;;;;;;5053217;28;20207;-81
2021/03/20 04:01:16;;;;;;;32.27;15.87;;;1.80;99.90;;;;;;5052837;28;20287;-81
2021/03/20 04:04:01;;;;;;;31.10;16.27;;;1.80;99.90;;;;;;5053429;28;20267;-82
2021/03/20 04:06:47;;;;;;;28.43;16.03;;;1.80;99.90;;;;;;5052659;28;20201;-81
2021/03/20 04:09:25;;;;;;;26.80;15.27;;;1.70;99.90;;;;;;5042833;28;20299;-82
2021/03/20 04:11:59;;;;;;;29.90;16.40;;;1.60;99.90;;;;;;5053019;28;20284;-81
2021/03/20 04:14:34;;;;;;;33.80;16.50;;;1.60;99.90;;;;;;5053006;28;20200;-80
2021/03/20 04:17:08;;;;;;;29.83;17.20;;;1.70;99.90;;;;;;5051155;28;20288;-81
2021/03/20 04:19:44;;;;;;;35.20;16.83;;;1.70;99.90;;;;;;5052696;28;20248;-81
2021/03/20 04:22:15;;;;;;;34.07;17.10;;;1.60;99.90;;;;;;5052860;28;20203;-79
2021/03/20 04:24:47;;;;;;;33.73;16.17;;;1.60;99.90;;;;;;5052974;28;20197;-79
2021/03/20 04:27:15;;;;;;;36.63;17.63;;;1.60;99.90;;;;;;5053210;28;20280;-79
2021/03/20 04:29:49;;;;;;;32.30;16.80;;;1.60;99.90;;;;;;5052625;28;20793;-78
2021/03/20 04:32:20;;;;;;;37.80;17.53;;;1.60;99.90;;;;;;5052111;28;20208;-80
2021/03/20 04:34:52;;;;;;;31.20;16.80;;;1.60;99.90;;;;;;5052419;28;20204;-79
2021/03/20 04:37:23;;;;;;;36.97;18.70;;;1.60;99.90;;;;;;5046925;28;20284;-80
2021/03/20 04:39:52;;;;;;;38.13;18.50;;;1.60;99.90;;;;;;5051944;28;20260;-81
2021/03/20 04:42:24;;;;;;;33.50;18.50;;;1.60;99.90;;;;;;5055728;28;20204;-79
2021/03/20 04:44:51;;;;;;;34.00;17.03;;;1.50;99.90;;;;;;5056773;28;20291;-79
2021/03/20 04:47:19;;;;;;;35.27;16.90;;;1.50;99.90;;;;;;5056429;28;20258;-81
2021/03/20 04:49:50;;;;;;;34.43;18.20;;;1.50;99.90;;;;;;5057427;28;20288;-83
2021/03/20 04:52:21;;;;;;;36.93;17.63;;;1.50;99.90;;;;;;5058617;28;20201;-79
2021/03/20 04:54:48;;;;;;;37.07;17.93;;;1.60;99.90;;;;;;5050819;28;20285;-82
2021/03/20 04:57:28;;;;;;;33.40;17.80;;;1.60;99.90;;;;;;5059056;28;20695;-80
2021/03/20 05:00:01;;;;;;;39.57;17.43;;;1.50;99.90;;;;;;5059049;28;20270;-83
2021/03/20 05:02:33;;;;;;;34.13;18.13;;;1.50;99.90;;;;;;5060527;28;20201;-81
2021/03/20 05:05:05;;;;;;;33.37;17.57;;;1.40;99.90;;;;;;5060217;28;20197;-80
2021/03/20 05:07:33;;;;;;;34.00;18.70;;;1.40;99.90;;;;;;5059114;28;20255;-81
2021/03/20 05:10:06;;;;;;;37.83;18.87;;;1.40;99.90;;;;;;5069925;28;20211;-82
2021/03/20 05:12:32;;;;;;;33.57;18.97;;;1.40;99.90;;;;;;5077466;28;20504;-82
2021/03/20 05:15:05;;;;;;;38.67;19.43;;;1.30;99.90;;;;;;5076602;28;20282;-81
2021/03/20 05:17:32;;;;;;;35.57;19.43;;;1.30;99.90;;;;;;5068413;28;20240;-82
2021/03/20 05:20:00;;;;;;;34.23;19.33;;;1.30;99.90;;;;;;5074420;28;20213;-82
2021/03/20 05:22:28;;;;;;;35.03;20.03;;;1.30;99.90;;;;;;5076642;28;20209;-84
2021/03/20 05:24:56;;;;;;;38.83;19.23;;;1.30;99.90;;;;;;5080475;28;20193;-81
2021/03/20 05:27:24;;;;;;;43.23;19.77;;;1.30;99.90;;;;;;5077478;28;20176;-84
2021/03/20 05:29:51;;;;;;;34.87;19.03;;;1.40;99.90;;;;;;5056600;28;20216;-86
2021/03/20 05:32:24;;;;;;;38.13;19.27;;;1.40;99.90;;;;;;5049994;28;20258;-83
2021/03/20 05:34:52;;;;;;;34.23;18.20;;;1.40;99.90;;;;;;5050168;28;20189;-85
2021/03/20 05:37:24;;;;;;;44.13;21.23;;;1.40;99.90;;;;;;5056048;28;20612;-82
2021/03/20 05:39:51;;;;;;;45.20;20.93;;;1.30;99.90;;;;;;5056447;28;20657;-85
2021/03/20 05:42:36;;;;;;;41.03;21.43;;;1.20;99.90;;;;;;5055779;28;20264;-83
2021/03/20 05:45:20;;;;;;;40.63;20.40;;;1.20;99.90;;;;;;5055790;28;20236;-82
2021/03/20 05:48:02;;;;;;;41.80;20.93;;;1.10;99.90;;;;;;5056021;28;20217;-82
2021/03/20 05:50:51;;;;;;;39.20;20.23;;;1.10;99.90;;;;;;5056028;28;20192;-82
2021/03/20 05:53:40;;;;;;;36.77;20.57;;;1.10;99.90;;;;;;5050420;28;20574;-82
2021/03/20 05:56:11;;;;;;;41.77;21.67;;;1.10;99.90;;;;;;5055862;28;20213;-81
2021/03/20 05:59:02;;;;;;;38.63;20.30;;;1.20;99.90;;;;;;5055676;28;20283;-84
2021/03/20 06:01:40;;;;;;;40.67;21.40;;;1.10;99.90;;;;;;5049924;28;20291;-83
2021/03/20 06:04:31;;;;;;;37.63;20.47;;;1.10;99.90;;;;;;5054964;28;20662;-87
2021/03/20 06:07:29;;;;;;;44.03;21.00;;;1.10;99.90;;;;;;5050520;28;20204;-83
2021/03/20 06:10:09;;;;;;;38.97;20.90;;;1.10;99.90;;;;;;5051933;28;20622;-84
2021/03/20 06:12:47;;;;;;;44.20;21.90;;;1.20;99.90;;;;;;5048852;28;20448;-86
2021/03/20 06:15:19;;;;;;;45.73;22.33;;;1.30;99.90;;;;;;5056459;28;20825;-83
2021/03/20 06:18:08;;;;;;;47.63;22.03;;;1.30;99.90;;;;;;5062578;28;20297;-84
2021/03/20 06:20:43;;;;;;;43.73;21.57;;;1.50;99.90;;;;;;5054896;28;20221;-84
2021/03/20 06:23:33;;;;;;;39.80;21.40;;;1.60;99.90;;;;;;5055092;28;20570;-84
2021/03/20 06:26:11;;;;;;;41.63;22.27;;;1.60;99.90;;;;;;5047187;28;20220;-84
2021/03/20 06:28:44;;;;;;;46.90;21.87;;;1.60;99.90;;;;;;5054679;28;20582;-84
2021/03/20 06:31:20;;;;;;;38.33;21.23;;;1.80;99.90;;;;;;5049509;28;20202;-85
2021/03/20 06:33:52;;;;;;;40.83;22.33;;;2.00;99.90;;;;;;5053109;28;20656;-83
2021/03/20 06:36:24;;;;;;;42.70;20.67;;;2.10;99.90;;;;;;5045416;28;20344;-84
2021/03/20 06:39:01;;;;;;;42.63;21.47;;;2.00;99.90;;;;;;5047943;28;20229;-84
2021/03/20 06:41:38;;;;;;;40.77;22.43;;;2.00;99.90;;;;;;5054024;28;20223;-83
2021/03/20 06:44:18;;;;;;;41.20;21.43;;;1.90;99.90;;;;;;5053977;28;20211;-84
2021/03/20 06:46:45;;;;;;;40.40;20.43;;;2.00;99.90;;;;;;5053330;28;20659;-82
2021/03/20 06:49:23;;;;;;;39.30;21.20;;;2.00;99.90;;;;;;5053072;28;20218;-83
2021/03/20 06:51:50;;;;;;;36.10;21.77;;;2.10;99.90;;;;;;5052445;28;20205;-85
2021/03/20 06:54:19;;;;;;;41.93;22.43;;;2.20;99.90;;;;;;5048855;28;20202;-83
2021/03/20 06:56:48;;;;;;;40.97;22.40;;;2.20;99.90;;;;;;5053682;28;20201;-83
2021/03/20 06:59:14;;;;;;;44.43;21.60;;;2.20;99.90;;;;;;5048220;28;20770;-82
2021/03/20 07:01:49;;;;;;;42.33;21.97;;;2.30;99.90;;;;;;5054371;28;20311;-84
2021/03/20 07:04:42;;;;;;;38.07;21.40;;;2.40;99.90;;;;;;5050074;28;20291;-84
2021/03/20 07:07:25;;;;;;;36.73;21.27;;;2.50;99.90;;;;;;5050592;28;20236;-84
2021/03/20 07:09:54;;;;;;;38.50;21.07;;;2.30;99.90;;;;;;5048782;28;20243;-83
2021/03/20 07:12:23;;;;;;;38.90;21.70;;;2.40;99.90;;;;;;5056853;28;20202;-83
2021/03/20 07:14:53;;;;;;;43.37;21.77;;;2.60;99.90;;;;;;5040341;28;20209;-84
2021/03/20 07:17:28;;;;;;;37.53;20.93;;;2.60;99.90;;;;;;5051366;28;20720;-84
2021/03/20 07:19:56;;;;;;;37.20;21.57;;;2.80;99.90;;;;;;5039281;28;20236;-84
2021/03/20 07:22:32;;;;;;;33.70;19.30;;;2.80;99.90;;;;;;5053852;28;20232;-84
2021/03/20 07:25:01;;;;;;;35.70;19.50;;;2.90;99.90;;;;;;5051894;28;20563;-85
2021/03/20 07:27:34;;;;;;;40.57;19.80;;;2.70;99.90;;;;;;5053341;28;20214;-85
2021/03/20 07:30:05;;;;;;;36.33;18.97;;;2.80;99.90;;;;;;5052152;28;20215;-83
2021/03/20 07:32:36;;;;;;;32.77;18.90;;;3.10;99.90;;;;;;5053419;28;20197;-84
2021/03/20 07:35:33;;;;;;;30.60;18.10;;;3.00;99.90;;;;;;5057778;28;20302;-83
2021/03/20 07:38:20;;;;;;;32.60;18.40;;;2.80;99.90;;;;;;5057911;28;20201;-85
2021/03/20 07:40:47;;;;;;;34.70;17.87;;;2.90;99.90;;;;;;5053517;28;20220;-85
2021/03/20 07:43:17;;;;;;;28.87;17.50;;;3.00;99.90;;;;;;5049464;28;20202;-84
2021/03/20 07:45:44;;;;;;;30.93;17.43;;;3.10;99.90;;;;;;5050435;28;20557;-85
2021/03/20 07:48:24;;;;;;;25.77;16.50;;;3.20;99.90;;;;;;5053496;28;20208;-83
2021/03/20 07:51:03;;;;;;;28.17;16.23;;;3.20;99.90;;;;;;5050492;28;20204;-83
2021/03/20 07:53:30;;;;;;;29.87;16.07;;;3.20;99.90;;;;;;5041276;28;20234;-83
2021/03/20 07:56:19;;;;;;;22.70;15.13;;;3.20;99.90;;;;;;5045329;28;20209;-84
2021/03/20 07:58:49;;;;;;;24.40;16.03;;;3.20;99.90;;;;;;5047678;28;20284;-87
2021/03/20 08:01:26;;;;;;;26.53;16.30;;;3.10;99.90;;;;;;5038137;28;20219;-84
2021/03/20 08:03:56;;;;;;;29.13;15.13;;;3.20;99.90;;;;;;5040771;28;20216;-83
2021/03/20 08:06:25;;;;;;;26.47;15.53;;;3.20;99.90;;;;;;5046989;28;20703;-82
2021/03/20 08:09:10;;;;;;;25.63;15.50;;;3.30;99.90;;;;;;5046534;28;20303;-83
2021/03/20 08:11:38;;;;;;;29.40;15.10;;;3.40;99.90;;;;;;5041597;28;20615;-84
2021/03/20 08:14:11;;;;;;;24.27;14.97;;;3.50;99.90;;;;;;5051923;28;20201;-86
2021/03/20 08:16:38;;;;;;;22.33;13.63;;;3.60;99.90;;;;;;5053141;28;20715;-85
2021/03/20 08:19:10;;;;;;;23.63;14.57;;;3.60;99.90;;;;;;5043248;28;20305;-84
2021/03/20 08:22:07;;;;;;;21.13;13.33;;;3.70;99.90;;;;;;5056046;28;20211;-82
2021/03/20 08:24:54;;;;;;;24.60;14.33;;;3.70;99.90;;;;;;5039883;28;20206;-83
2021/03/20 08:27:29;;;;;;;25.90;14.37;;;3.70;99.90;;;;;;5044518;28;20335;-85
2021/03/20 08:30:17;;;;;;;23.37;13.47;;;3.80;99.90;;;;;;5045824;28;20296;-83
2021/03/20 08:33:01;;;;;;;23.10;15.13;;;3.90;99.90;;;;;;5049177;28;20324;-83
2021/03/20 08:35:33;;;;;;;21.43;13.97;;;4.10;99.90;;;;;;5039820;28;20197;-85
2021/03/20 08:38:36;;;;;;;23.07;14.13;;;4.30;99.90;;;;;;5047261;28;20274;-85
2021/03/20 08:41:12;;;;;;;20.37;12.73;;;4.50;99.90;;;;;;5033187;28;20303;-81
2021/03/20 08:44:29;;;;;;;21.87;14.00;;;4.60;99.90;;;;;;5046475;28;20206;-79
2021/03/20 08:47:21;;;;;;;20.43;12.63;;;4.70;99.90;;;;;;5020066;28;20294;-81
2021/03/20 08:50:00;;;;;;;23.13;13.73;;;4.70;99.90;;;;;;5056119;28;20237;-81
2021/03/20 08:52:32;;;;;;;27.17;13.20;;;4.70;99.90;;;;;;5049253;28;20207;-85
2021/03/20 08:55:20;;;;;;;16.83;12.17;;;4.80;99.90;;;;;;5056313;28;20204;-83
2021/03/20 08:57:53;;;;;;;22.50;12.53;;;4.70;99.90;;;;;;5042718;28;20720;-80
2021/03/20 09:00:24;;;;;;;23.83;13.73;;;4.80;99.90;;;;;;5051590;28;20237;-82
2021/03/20 09:02:56;;;;;;;20.67;13.17;;;4.90;99.90;;;;;;5036132;28;20229;-82
2021/03/20 09:05:30;;;;;;;24.50;13.87;;;5.00;99.90;;;;;;5044078;28;20277;-81
2021/03/20 09:08:01;;;;;;;19.63;12.10;;;5.00;99.90;;;;;;5053889;28;20186;-82
2021/03/20 09:10:32;;;;;;;18.80;12.37;;;5.10;99.90;;;;;;5054568;28;20194;-83
2021/03/20 09:13:14;;;;;;;20.97;12.33;;;5.10;99.90;;;;;;5046981;28;20207;-82
2021/03/20 09:15:46;;;;;;;18.80;11.53;;;5.20;99.90;;;;;;5054876;28;20566;-81
2021/03/20 09:18:16;;;;;;;17.77;11.50;;;5.10;99.90;;;;;;5040248;28;20195;-81
2021/03/20 09:20:47;;;;;;;17.90;11.57;;;5.20;99.90;;;;;;5052148;28;20717;-82
2021/03/20 09:23:26;;;;;;;16.70;11.07;;;5.20;99.90;;;;;;5039505;28;20197;-81
2021/03/20 09:25:55;;;;;;;22.83;11.60;;;5.30;99.90;;;;;;5043672;28;20293;-80
2021/03/20 09:28:28;;;;;;;17.90;11.43;;;5.30;99.90;;;;;;5045539;28;20729;-80
2021/03/20 09:31:01;;;;;;;15.97;10.50;;;5.40;99.90;;;;;;5040549;28;20260;-81
2021/03/20 09:33:39;;;;;;;15.93;9.27;;;5.80;99.90;;;;;;5042068;28;20601;-81
2021/03/20 09:36:10;;;;;;;12.73;8.10;;;5.90;99.90;;;;;;5047889;28;20235;-82
2021/03/20 09:38:58;;;;;;;13.97;9.23;;;5.90;99.90;;;;;;5046677;28;20193;-83
2021/03/20 09:41:41;;;;;;;13.00;8.50;;;6.00;99.90;;;;;;5033728;28;20198;-80
2021/03/20 09:44:13;;;;;;;12.80;8.23;;;6.20;99.90;;;;;;5039758;28;20199;-80
2021/03/20 09:46:58;;;;;;;12.97;7.97;;;6.20;99.90;;;;;;5051949;28;20214;-81
2021/03/20 09:49:54;;;;;;;10.97;7.77;;;6.10;99.90;;;;;;5054383;28;20212;-80
2021/03/20 09:52:36;;;;;;;13.00;8.27;;;6.20;99.90;;;;;;5053407;28;20557;-82
2021/03/20 09:55:48;;;;;;;13.67;8.90;;;6.20;99.90;;;;;;5041392;28;20208;-80
2021/03/20 09:58:34;;;;;;;11.67;8.43;;;6.30;99.90;;;;;;5047609;28;20245;-81
2021/03/20 10:01:09;;;;;;;12.37;8.37;;;6.70;99.90;;;;;;5033932;28;20304;-82
2021/03/20 10:03:45;;;;;;;11.77;7.37;;;7.30;99.90;;;;;;5036758;28;20629;-82
2021/03/20 10:06:24;;;;;;;14.30;7.33;;;7.70;99.90;;;;;;5043453;28;20716;-82
2021/03/20 10:09:00;;;;;;;9.20;6.67;;;7.90;99.90;;;;;;5045973;28;20204;-79
2021/03/20 10:11:33;;;;;;;12.77;6.90;;;7.90;99.90;;;;;;5040810;28;20198;-82
2021/03/20 10:14:00;;;;;;;11.23;6.10;;;8.00;99.90;;;;;;5040521;28;20213;-80
2021/03/20 10:16:30;;;;;;;11.33;6.87;;;8.30;99.90;;;;;;5049179;28;20626;-80
2021/03/20 10:19:10;;;;;;;10.97;6.00;;;8.30;99.90;;;;;;5052193;28;20267;-82
2021/03/20 10:21:38;;;;;;;6.17;4.73;;;8.00;99.90;;;;;;5044057;28;20657;-83
2021/03/20 10:24:19;;;;;;;10.53;5.23;;;7.50;99.90;;;;;;5045471;28;20658;-82
2021/03/20 10:26:55;;;;;;;8.33;5.00;;;7.60;99.90;;;;;;5049458;28;20216;-81
2021/03/20 10:29:28;;;;;;;9.83;6.90;;;8.40;99.90;;;;;;5053746;28;20198;-83
2021/03/20 10:32:02;;;;;;;5.60;4.73;;;9.90;99.90;;;;;;5042458;28;20244;-82
2021/03/20 10:34:28;;;;;;;5.57;4.50;;;11.00;99.90;;;;;;5041488;28;20197;-82
2021/03/20 10:37:06;;;;;;;8.57;5.40;;;10.60;99.90;;;;;;5036112;28;20205;-82
2021/03/20 10:39:35;;;;;;;6.77;4.60;;;11.10;99.90;;;;;;5040638;28;20217;-80
2021/03/20 10:42:04;;;;;;;5.83;3.93;;;12.30;99.90;;;;;;5038395;28;20289;-79
2021/03/20 10:44:36;;;;;;;6.10;4.27;;;13.70;99.90;;;;;;5026747;28;20200;-77
2021/03/20 10:47:07;;;;;;;4.50;3.30;;;14.00;99.90;;;;;;5043327;28;20203;-78
2021/03/20 10:49:39;;;;;;;5.93;3.90;;;13.60;99.90;;;;;;5045580;28;20196;-78
2021/03/20 10:52:19;;;;;;;5.50;3.90;;;12.50;99.90;;;;;;5046076;28;20246;-78
2021/03/20 10:54:48;;;;;;;8.53;3.67;;;13.30;99.90;;;;;;5039753;28;20197;-77
2021/03/20 10:57:18;;;;;;;4.57;3.37;;;13.60;99.90;;;;;;5047199;28;20199;-79
2021/03/20 10:59:46;;;;;;;4.37;3.40;;;13.80;99.90;;;;;;5045480;28;20223;-76
2021/03/20 11:02:31;;;;;;;4.57;3.30;;;13.30;99.90;;;;;;5043531;28;20200;-77
2021/03/20 11:05:15;;;;;;;4.93;3.20;;;12.20;99.90;;;;;;5048706;28;20269;-78
2021/03/20 11:07:50;;;;;;;8.87;3.63;;;12.40;99.90;;;;;;5044295;28;20279;-78
2021/03/20 11:10:26;;;;;;;6.73;3.30;;;12.10;99.90;;;;;;5050588;28;20675;-77
2021/03/20 11:12:54;;;;;;;5.60;3.63;;;12.60;99.90;;;;;;5040980;28;20213;-78
2021/03/20 11:15:25;;;;;;;5.73;3.90;;;13.10;99.90;;;;;;5050806;28;20294;-76
2021/03/20 11:17:57;;;;;;;4.27;3.70;;;13.40;99.90;;;;;;5048116;28;20288;-79
2021/03/20 11:20:31;;;;;;;5.03;3.47;;;14.60;99.90;;;;;;5046855;28;20230;-80
2021/03/20 11:22:59;;;;;;;5.17;3.63;;;15.20;99.90;;;;;;5038791;28;20283;-77
2021/03/20 11:25:34;;;;;;;5.07;3.83;;;14.60;99.90;;;;;;5049455;28;20314;-80
2021/03/20 11:28:02;;;;;;;5.63;3.47;;;14.60;99.90;;;;;;5051589;28;20669;-78
2021/03/20 11:30:33;;;;;;;6.43;3.37;;;13.60;99.90;;;;;;5047674;28;20295;-77
2021/03/20 11:33:01;;;;;;;6.33;3.50;;;13.00;99.90;;;;;;5042276;28;20196;-77
2021/03/20 11:35:32;;;;;;;5.10;3.33;;;13.70;99.90;;;;;;5053445;28;20208;-78
2021/03/20 11:38:02;;;;;;;5.43;3.67;;;14.10;99.90;;;;;;5070630;28;20219;-78
2021/03/20 11:40:34;;;;;;;4.67;3.40;;;13.40;99.90;;;;;;5070452;28;20239;-78
2021/03/20 11:43:03;;;;;;;6.10;3.67;;;13.80;99.90;;;;;;5067154;28;20282;-76
2021/03/20 11:45:32;;;;;;;5.07;3.57;;;13.60;99.90;;;;;;5062443;28;20220;-79
2021/03/20 11:48:04;;;;;;;4.67;3.37;;;13.10;99.90;;;;;;5062213;28;20206;-78
2021/03/20 11:50:35;;;;;;;6.73;2.80;;;13.40;99.90;;;;;;5050272;28;20290;-78
2021/03/20 11:53:05;;;;;;;4.53;3.03;;;13.60;99.90;;;;;;5048202;28;20283;-80
2021/03/20 11:55:36;;;;;;;6.17;3.20;;;14.00;99.90;;;;;;5047519;28;21662;-77
2021/03/20 11:58:07;;;;;;;4.00;3.10;;;13.60;99.90;;;;;;5047964;28;20211;-78
2021/03/20 12:00:41;;;;;;;3.47;2.83;;;13.00;99.90;;;;;;5041472;28;20214;-77
2021/03/20 12:03:31;;;;;;;4.63;2.77;;;13.20;99.90;;;;;;5051748;28;20291;-79
2021/03/20 12:06:21;;;;;;;4.77;2.30;;;12.40;99.90;;;;;;5052233;28;20215;-76
2021/03/20 12:08:49;;;;;;;4.60;2.33;;;12.30;99.90;;;;;;5049486;28;20487;-79
2021/03/20 12:11:17;;;;;;;3.47;2.50;;;12.00;99.90;;;;;;5051860;28;20208;-79
2021/03/20 12:13:47;;;;;;;3.40;2.17;;;11.90;99.90;;;;;;5050400;28;20196;-78
2021/03/20 12:16:33;;;;;;;3.63;2.47;;;11.90;99.90;;;;;;5050273;28;20245;-77
2021/03/20 12:19:06;;;;;;;3.07;2.30;;;11.30;99.90;;;;;;5035781;28;20214;-77
2021/03/20 12:21:33;;;;;;;5.97;2.60;;;11.30;99.90;;;;;;5042888;28;20339;-78
2021/03/20 12:24:01;;;;;;;4.60;2.40;;;11.40;99.90;;;;;;5039238;28;20209;-77
2021/03/20 12:26:31;;;;;;;4.17;2.43;;;11.50;99.90;;;;;;5040804;28;20288;-75
2021/03/20 12:29:25;;;;;;;5.00;2.43;;;12.10;99.90;;;;;;5047993;28;20288;-77
2021/03/20 12:31:52;;;;;;;4.77;2.53;;;11.50;99.90;;;;;;5042547;28;20285;-78
2021/03/20 12:34:30;;;;;;;7.13;2.90;;;11.80;99.90;;;;;;5044424;28;20220;-77
2021/03/20 12:37:16;;;;;;;4.57;2.97;;;11.50;99.90;;;;;;5033026;28;20261;-77
2021/03/20 12:39:43;;;;;;;4.93;3.13;;;11.50;99.90;;;;;;5037318;28;20227;-76
2021/03/20 12:42:10;;;;;;;4.67;2.80;;;11.20;99.90;;;;;;5049721;28;20541;-76
2021/03/20 12:44:44;;;;;;;3.97;3.00;;;11.40;99.90;;;;;;5048868;28;20206;-77
2021/03/20 12:47:15;;;;;;;3.90;3.00;;;11.80;99.90;;;;;;5047537;28;20205;-78
2021/03/20 12:49:41;;;;;;;5.47;2.93;;;11.70;99.90;;;;;;5041348;28;20226;-79
2021/03/20 12:52:12;;;;;;;4.33;3.07;;;11.60;99.90;;;;;;5044214;28;20202;-77
2021/03/20 12:54:42;;;;;;;5.70;3.30;;;11.40;99.90;;;;;;5041984;28;20410;-78
2021/03/20 12:57:18;;;;;;;4.63;3.10;;;10.80;99.90;;;;;;5045580;28;20199;-76
2021/03/20 12:59:44;;;;;;;6.57;2.83;;;11.10;99.90;;;;;;5044379;28;20220;-78
2021/03/20 13:02:11;;;;;;;3.83;2.70;;;11.30;99.90;;;;;;5043295;28;20238;-76
2021/03/20 13:04:38;;;;;;;3.43;2.80;;;11.60;99.90;;;;;;5048006;28;20233;-76
2021/03/20 13:07:06;;;;;;;3.93;2.63;;;11.80;99.90;;;;;;5052138;28;20246;-79
2021/03/20 13:09:32;;;;;;;6.10;2.73;;;11.80;99.90;;;;;;5047109;28;20621;-78
2021/03/20 13:11:59;;;;;;;6.07;2.83;;;11.50;99.90;;;;;;5045365;28;20299;-78
2021/03/20 13:14:26;;;;;;;3.33;2.50;;;11.50;99.90;;;;;;5048378;28;20203;-79